CPC3 weather

Arthur (Walter's Field)
Arthur East, Ontario, Canada

Public forecast

Using degrees Celsius for public forecast. Weather courtesy of forecast.io.

METAR (pilot weather report)

Closest report is Waterloo Airport, 23.0 nm (42.5 km) S. Retrieved 2019/09/21 10:33 UTC (10 minutes ago):

CYKF 211033Z AUTO 36002KT 3SM BR OVC170 13/13 A3020 RMK SLP225

TAF (pilot weather forecast)

Closest forecast is Waterloo Airport, 23.0 nm (42.5 km) S. Retrieved 2019/09/21 08:45 UTC (2 hours ago):

TAF TAF CYKF 210742Z 2108/2120 VRB03KT 3SM BR SKC TEMPO 2108/2113 1SM BR PROB30 2108/2113 1/4SM FG VV002 FM211300 18008KT P6SM SCT050 TEMPO 2119/2120 P6SM -SHRA OVC050 RMK FCST BASED ON AUTO OBS. NXT FCST BY 211400Z